createdAt,value
2022-10-02T00:02:14.634Z,100227.81
2022-10-02T00:05:14.254Z,100228.97
2022-10-02T00:07:46.342Z,100230.94
2022-10-02T00:10:47.084Z,100232.66
2022-10-02T00:13:23.323Z,100240.44
2022-10-02T00:15:50.748Z,100231.72
2022-10-02T00:18:22.455Z,100233.84
2022-10-02T00:21:09.849Z,100231.63
2022-10-02T00:23:40.327Z,100239.69
2022-10-02T00:26:20.087Z,100241.06
2022-10-02T00:29:07.399Z,100235.84
2022-10-02T00:31:47.883Z,100246.09
2022-10-02T00:34:32.364Z,100238.41
2022-10-02T00:37:24.823Z,100238.28
2022-10-02T00:39:55.834Z,100235.56
2022-10-02T00:43:11.178Z,100231.38
2022-10-02T00:46:16.046Z,100226.34
2022-10-02T00:49:10.776Z,100224.44
2022-10-02T00:51:48.186Z,100223.91
2022-10-02T00:54:38.376Z,100230.91
2022-10-02T00:57:11.683Z,100231.41
2022-10-02T00:59:51.422Z,100233.88
2022-10-02T01:02:24.098Z,100244.34
2022-10-02T01:04:52.929Z,100236.66
2022-10-02T01:07:20.812Z,100247.00
2022-10-02T01:09:47.447Z,100245.34
2022-10-02T01:12:14.984Z,100248.59
2022-10-02T01:14:41.525Z,100248.22
2022-10-02T01:17:23.853Z,100252.63
2022-10-02T01:19:50.848Z,100256.25
2022-10-02T01:22:56.415Z,100260.47
2022-10-02T01:25:23.244Z,100268.19
2022-10-02T01:27:51.382Z,100262.53
2022-10-02T01:30:20.610Z,100263.13
2022-10-02T01:32:57.320Z,100254.84
2022-10-02T01:35:31.813Z,100259.66
2022-10-02T01:38:00.437Z,100254.75
2022-10-02T01:40:30.328Z,100264.47
2022-10-02T01:43:01.340Z,100260.47
2022-10-02T01:45:49.768Z,100254.41
2022-10-02T01:48:29.652Z,100261.59
2022-10-02T01:51:20.353Z,100266.88
2022-10-02T01:53:54.057Z,100263.75
2022-10-02T01:56:29.673Z,100268.09
2022-10-02T01:59:19.259Z,100276.47
2022-10-02T02:01:58.539Z,100276.75
2022-10-02T02:04:29.773Z,100277.59
2022-10-02T02:07:15.257Z,100277.44
2022-10-02T02:09:50.506Z,100272.75
2022-10-02T02:12:45.773Z,100274.28
2022-10-02T02:15:36.458Z,100282.00
2022-10-02T02:18:17.071Z,100291.25
2022-10-02T02:20:48.035Z,100285.28
2022-10-02T02:23:19.965Z,100293.13
2022-10-02T02:25:52.650Z,100279.38
2022-10-02T02:28:21.728Z,100281.00
2022-10-02T02:30:52.059Z,100275.63
2022-10-02T02:33:25.521Z,100286.75
2022-10-02T02:35:58.498Z,100292.97
2022-10-02T02:38:33.309Z,100276.75
2022-10-02T02:41:26.093Z,100275.78
2022-10-02T02:44:03.861Z,100272.72
2022-10-02T02:47:00.861Z,100277.34
2022-10-02T02:49:31.835Z,100280.50
2022-10-02T02:52:01.540Z,100279.38
2022-10-02T02:54:36.553Z,100279.69
2022-10-02T02:57:06.346Z,100282.00
2022-10-02T02:59:36.167Z,100283.63
2022-10-02T03:02:02.668Z,100282.00
2022-10-02T03:04:29.246Z,100289.28
2022-10-02T03:07:01.499Z,100285.28
2022-10-02T03:09:30.534Z,100287.41
2022-10-02T03:12:09.653Z,100281.00
2022-10-02T03:14:51.021Z,100295.03
2022-10-02T03:17:29.670Z,100292.25
2022-10-02T03:20:21.355Z,100293.94
2022-10-02T03:22:56.842Z,100289.63
2022-10-02T03:25:31.947Z,100287.41
2022-10-02T03:28:43.427Z,100296.56
2022-10-02T03:31:09.672Z,100289.63
2022-10-02T03:33:37.410Z,100296.66
2022-10-02T03:36:05.447Z,100299.69
2022-10-02T03:38:33.869Z,100291.81
2022-10-02T03:41:00.301Z,100300.50
2022-10-02T03:43:29.283Z,100296.00
2022-10-02T03:45:56.708Z,100308.69
2022-10-02T03:48:23.608Z,100303.59
2022-10-02T03:50:51.056Z,100304.75
2022-10-02T03:53:24.451Z,100304.81
2022-10-02T03:55:57.903Z,100296.53
2022-10-02T03:58:25.674Z,100305.72
2022-10-02T04:01:04.735Z,100309.63
2022-10-02T04:03:36.877Z,100313.97
2022-10-02T04:06:14.497Z,100306.75
2022-10-02T04:08:50.744Z,100298.16
2022-10-02T04:11:31.784Z,100291.38
2022-10-02T04:14:24.540Z,100286.13
2022-10-02T04:16:56.204Z,100290.66
2022-10-02T04:19:26.504Z,100292.56
2022-10-02T04:22:32.384Z,100280.28
2022-10-02T04:25:12.553Z,100287.75
2022-10-02T04:27:48.092Z,100301.28
2022-10-02T04:30:16.868Z,100317.78
2022-10-02T04:32:43.600Z,100311.53
2022-10-02T04:35:56.869Z,100285.03
2022-10-02T04:38:29.252Z,100293.28
2022-10-02T04:41:32.888Z,100309.69
2022-10-02T04:44:08.501Z,100322.25
2022-10-02T04:46:43.922Z,100332.88
2022-10-02T04:49:26.535Z,100313.47
2022-10-02T04:52:24.247Z,100319.19
2022-10-02T04:55:03.140Z,100313.97
2022-10-02T04:57:51.233Z,100312.97
2022-10-02T05:00:21.806Z,100317.09
2022-10-02T05:02:59.804Z,100309.13
2022-10-02T05:06:06.233Z,100304.25
2022-10-02T05:08:57.419Z,100302.06
2022-10-02T05:11:51.888Z,100304.78
2022-10-02T05:14:26.830Z,100304.22
2022-10-02T05:17:07.353Z,100302.00
2022-10-02T05:19:57.219Z,100309.38
2022-10-02T05:22:50.085Z,100316.75
2022-10-02T05:26:03.507Z,100306.03
2022-10-02T05:28:49.764Z,100318.91
2022-10-02T05:31:50.299Z,100319.50
2022-10-02T05:34:16.665Z,100328.59
2022-10-02T05:36:52.505Z,100328.69
2022-10-02T05:39:27.710Z,100330.25
2022-10-02T05:41:59.228Z,100322.16
2022-10-02T05:44:37.423Z,100329.13
2022-10-02T05:47:09.974Z,100323.78
2022-10-02T05:49:43.332Z,100330.53
2022-10-02T05:52:18.709Z,100330.84
2022-10-02T05:54:53.306Z,100337.25
2022-10-02T05:57:42.482Z,100327.69
2022-10-02T06:00:52.099Z,100344.56
2022-10-02T06:03:43.802Z,100345.59
2022-10-02T06:06:16.734Z,100352.50
2022-10-02T06:08:50.876Z,100354.94
2022-10-02T06:11:42.171Z,100349.97
2022-10-02T06:14:22.322Z,100351.59
2022-10-02T06:17:00.900Z,100351.66
2022-10-02T06:19:35.102Z,100347.13
2022-10-02T06:22:13.566Z,100342.91
2022-10-02T06:24:49.241Z,100348.63
2022-10-02T06:27:40.668Z,100347.38
2022-10-02T06:30:11.129Z,100347.66
2022-10-02T06:32:58.635Z,100342.88
2022-10-02T06:35:29.018Z,100342.94
2022-10-02T06:38:20.036Z,100338.06
2022-10-02T06:40:56.183Z,100335.94
2022-10-02T06:43:43.383Z,100340.31
2022-10-02T06:46:28.075Z,100335.41
2022-10-02T06:49:02.123Z,100344.59
2022-10-02T06:52:01.095Z,100359.13
2022-10-02T06:54:27.479Z,100363.03
2022-10-02T06:57:22.513Z,100361.00
2022-10-02T07:00:05.826Z,100356.72
2022-10-02T07:02:53.662Z,100362.88
2022-10-02T07:05:32.351Z,100361.13
2022-10-02T07:08:17.760Z,100356.28
2022-10-02T07:10:44.167Z,100364.38
2022-10-02T07:13:36.772Z,100362.38
2022-10-02T07:16:26.086Z,100380.63
2022-10-02T07:19:28.796Z,100363.34
2022-10-02T07:22:20.515Z,100367.38
2022-10-02T07:25:02.494Z,100368.72
2022-10-02T07:27:38.193Z,100368.91
2022-10-02T07:30:06.200Z,100364.00
2022-10-02T07:32:38.444Z,100370.00
2022-10-02T07:35:19.637Z,100363.53
2022-10-02T07:38:07.722Z,100379.63
2022-10-02T07:41:04.441Z,100378.78
2022-10-02T07:44:05.552Z,100376.94
2022-10-02T07:46:47.252Z,100374.19
2022-10-02T07:49:39.241Z,100386.19
2022-10-02T07:52:42.781Z,100396.75
2022-10-02T07:55:25.928Z,100404.56
2022-10-02T07:58:12.538Z,100418.47
2022-10-02T08:00:45.405Z,100416.53
2022-10-02T08:03:25.863Z,100415.50
2022-10-02T08:05:55.468Z,100413.88
2022-10-02T08:08:30.917Z,100405.78
2022-10-02T08:11:09.306Z,100409.09
2022-10-02T08:14:05.493Z,100431.09
2022-10-02T08:16:46.628Z,100434.03
2022-10-02T08:19:16.807Z,100430.78
2022-10-02T08:21:47.985Z,100432.41
2022-10-02T08:24:20.422Z,100429.16
2022-10-02T08:26:53.650Z,100432.13
2022-10-02T08:29:49.391Z,100432.25
2022-10-02T08:32:15.809Z,100434.34
2022-10-02T08:34:44.150Z,100428.69
2022-10-02T08:37:35.417Z,100424.44
2022-10-02T08:40:20.150Z,100428.31
2022-10-02T08:43:22.931Z,100427.00
2022-10-02T08:46:26.190Z,100440.09
2022-10-02T08:49:25.679Z,100437.16
2022-10-02T08:52:42.053Z,100445.31
2022-10-02T08:55:21.857Z,100431.72
2022-10-02T08:58:36.086Z,100442.72
2022-10-02T09:01:23.897Z,100444.38
2022-10-02T09:03:56.430Z,100441.66
2022-10-02T09:07:05.314Z,100443.38
2022-10-02T09:09:34.736Z,100460.19
2022-10-02T09:12:22.319Z,100453.41
2022-10-02T09:14:49.811Z,100451.03
2022-10-02T09:17:44.753Z,100446.34
2022-10-02T09:20:41.309Z,100446.09
2022-10-02T09:23:07.739Z,100448.25
2022-10-02T09:25:49.213Z,100453.16
2022-10-02T09:28:33.961Z,100444.19
2022-10-02T09:31:22.822Z,100450.47
2022-10-02T09:34:25.643Z,100446.41
2022-10-02T09:37:28.480Z,100447.22
2022-10-02T09:40:13.707Z,100444.22
2022-10-02T09:43:03.313Z,100449.94
2022-10-02T09:45:51.511Z,100449.97
2022-10-02T09:48:43.241Z,100439.88
2022-10-02T09:51:26.271Z,100454.34
2022-10-02T09:54:21.536Z,100451.66
2022-10-02T09:57:07.046Z,100451.91
2022-10-02T09:59:52.079Z,100446.44
2022-10-02T10:02:53.663Z,100442.38
2022-10-02T10:05:45.630Z,100446.16
2022-10-02T10:08:30.828Z,100449.44
2022-10-02T10:11:29.374Z,100447.81
2022-10-02T10:14:23.327Z,100446.44
2022-10-02T10:17:09.321Z,100453.81
2022-10-02T10:19:38.950Z,100448.38
2022-10-02T10:22:37.384Z,100455.97
2022-10-02T10:25:34.407Z,100448.34
2022-10-02T10:28:20.249Z,100446.16
2022-10-02T10:30:52.830Z,100444.50
2022-10-02T10:33:28.306Z,100441.78
2022-10-02T10:37:01.992Z,100446.13
2022-10-02T10:39:52.636Z,100445.56
2022-10-02T10:42:49.980Z,100446.06
2022-10-02T10:45:39.409Z,100459.66
2022-10-02T10:48:39.186Z,100450.38
2022-10-02T10:51:16.982Z,100449.31
2022-10-02T10:54:17.754Z,100445.41
2022-10-02T10:56:53.631Z,100445.94
2022-10-02T10:59:42.598Z,100454.09
2022-10-02T11:02:31.607Z,100455.16
2022-10-02T11:05:33.226Z,100453.50
2022-10-02T11:08:15.014Z,100444.72
2022-10-02T11:11:09.493Z,100451.88
2022-10-02T11:13:41.870Z,100465.56
2022-10-02T11:16:22.571Z,100456.88
2022-10-02T11:19:21.769Z,100443.81
2022-10-02T11:21:52.679Z,100458.03
2022-10-02T11:24:25.299Z,100447.72
2022-10-02T11:27:22.092Z,100462.44
2022-10-02T11:29:57.470Z,100458.63
2022-10-02T11:33:01.186Z,100442.50
2022-10-02T11:35:49.082Z,100436.53
2022-10-02T11:38:43.593Z,100439.22
2022-10-02T11:41:46.807Z,100438.31
2022-10-02T11:44:28.246Z,100439.13
2022-10-02T11:47:36.262Z,100435.56
2022-10-02T11:50:37.359Z,100448.06
2022-10-02T11:53:32.215Z,100450.53
2022-10-02T11:56:07.995Z,100455.75
2022-10-02T11:58:45.348Z,100445.41
2022-10-02T12:01:45.404Z,100451.91
2022-10-02T12:04:52.427Z,100452.94
2022-10-02T12:07:36.203Z,100442.53
2022-10-02T12:10:27.574Z,100451.69
2022-10-02T12:13:16.001Z,100450.53
2022-10-02T12:16:20.311Z,100454.50
2022-10-02T12:19:01.819Z,100458.06
2022-10-02T12:22:10.074Z,100454.19
2022-10-02T12:25:06.947Z,100455.25
2022-10-02T12:28:10.597Z,100448.66
2022-10-02T12:30:45.417Z,100468.69
2022-10-02T12:33:33.511Z,100489.75
2022-10-02T12:36:00.013Z,100497.25
2022-10-02T12:38:49.954Z,100496.66
2022-10-02T12:41:59.160Z,100504.13
2022-10-02T12:45:02.631Z,100499.28
2022-10-02T12:47:37.043Z,100507.00
2022-10-02T12:50:21.895Z,100499.44
2022-10-02T12:53:22.856Z,100493.22
2022-10-02T12:55:55.620Z,100516.97
2022-10-02T12:58:34.185Z,100522.16
2022-10-02T13:01:20.134Z,100526.22
2022-10-02T13:04:41.129Z,100526.78
2022-10-02T13:07:42.645Z,100526.25
2022-10-02T13:10:21.640Z,100532.19
2022-10-02T13:13:03.010Z,100529.94
2022-10-02T13:15:51.040Z,100536.44
2022-10-02T13:18:29.277Z,100530.41
2022-10-02T13:21:40.700Z,100531.28
2022-10-02T13:24:35.157Z,100554.88
2022-10-02T13:27:16.657Z,100550.75
2022-10-02T13:29:51.162Z,100558.56
2022-10-02T13:32:23.501Z,100549.56
2022-10-02T13:35:02.104Z,100543.34
2022-10-02T13:37:51.757Z,100539.03
2022-10-02T13:41:06.101Z,100536.84
2022-10-02T13:43:34.609Z,100535.13
2022-10-02T13:46:33.982Z,100542.75
2022-10-02T13:49:40.112Z,100540.63
2022-10-02T13:52:24.729Z,100531.84
2022-10-02T13:55:07.812Z,100521.78
2022-10-02T13:57:52.957Z,100530.13
2022-10-02T14:00:37.709Z,100531.03
2022-10-02T14:03:24.183Z,100525.78
2022-10-02T14:06:00.334Z,100532.28
2022-10-02T14:09:04.372Z,100528.03
2022-10-02T14:11:49.410Z,100524.81
2022-10-02T14:14:31.226Z,100523.72
2022-10-02T14:17:12.366Z,100519.38
2022-10-02T14:19:44.689Z,100529.44
2022-10-02T14:22:25.261Z,100524.56
2022-10-02T14:25:38.270Z,100530.66
2022-10-02T14:28:10.931Z,100526.06
2022-10-02T14:30:54.091Z,100526.59
2022-10-02T14:33:30.002Z,100524.97
2022-10-02T14:36:12.776Z,100529.34
2022-10-02T14:38:51.315Z,100535.34
2022-10-02T14:41:39.496Z,100537.25
2022-10-02T14:44:43.886Z,100542.97
2022-10-02T14:47:17.319Z,100538.06
2022-10-02T14:50:02.170Z,100540.78
2022-10-02T14:52:28.648Z,100540.19
2022-10-02T14:55:16.239Z,100543.28
2022-10-02T14:57:55.011Z,100542.66
2022-10-02T15:00:24.545Z,100545.06
2022-10-02T15:02:51.057Z,100540.16
2022-10-02T15:05:32.511Z,100547.88
2022-10-02T15:08:00.223Z,100549.91
2022-10-02T15:10:33.201Z,100554.25
2022-10-02T15:13:28.510Z,100558.66
2022-10-02T15:16:38.031Z,100555.13
2022-10-02T15:19:16.975Z,100571.13
2022-10-02T15:21:59.232Z,100564.63
2022-10-02T15:24:28.008Z,100573.25
2022-10-02T15:27:11.763Z,100586.63
2022-10-02T15:30:06.201Z,100586.63
2022-10-02T15:32:55.310Z,100582.00
2022-10-02T15:35:35.758Z,100584.13
2022-10-02T15:38:39.119Z,100597.50
2022-10-02T15:41:40.141Z,100608.88
2022-10-02T15:44:15.982Z,100610.19
2022-10-02T15:46:45.617Z,100613.44
2022-10-02T15:49:36.840Z,100610.44
2022-10-02T15:52:33.250Z,100621.28
2022-10-02T15:55:19.945Z,100626.72
2022-10-02T15:58:00.838Z,100621.50
2022-10-02T16:00:29.894Z,100623.03
2022-10-02T16:03:03.312Z,100623.84
2022-10-02T16:05:47.808Z,100625.41
2022-10-02T16:08:32.595Z,100629.50
2022-10-02T16:11:18.999Z,100630.78
2022-10-02T16:13:55.935Z,100637.03
2022-10-02T16:16:42.772Z,100636.41
2022-10-02T16:19:28.527Z,100643.56
2022-10-02T16:22:17.748Z,100655.09
2022-10-02T16:25:03.981Z,100660.56
2022-10-02T16:28:15.599Z,100661.13
2022-10-02T16:30:45.299Z,100674.31
2022-10-02T16:33:38.176Z,100680.81
2022-10-02T16:36:30.358Z,100685.72
2022-10-02T16:39:36.082Z,100687.03
2022-10-02T16:42:29.183Z,100684.00
2022-10-02T16:45:29.020Z,100690.53
2022-10-02T16:48:12.288Z,100696.38
2022-10-02T16:51:08.652Z,100697.72
2022-10-02T16:53:54.836Z,100706.13
2022-10-02T16:56:32.472Z,100710.34
2022-10-02T16:59:16.332Z,100711.09
2022-10-02T17:02:05.861Z,100713.97
2022-10-02T17:04:50.241Z,100720.09
2022-10-02T17:07:41.696Z,100724.81
2022-10-02T17:10:19.375Z,100717.38
2022-10-02T17:13:01.508Z,100725.47
2022-10-02T17:15:43.917Z,100745.19
2022-10-02T17:18:32.920Z,100742.72
2022-10-02T17:21:26.521Z,100737.00
2022-10-02T17:24:15.633Z,100744.56
2022-10-02T17:26:50.533Z,100754.63
2022-10-02T17:29:27.963Z,100750.53
2022-10-02T17:32:01.630Z,100762.63
2022-10-02T17:34:34.637Z,100763.13
2022-10-02T17:37:04.821Z,100754.03
2022-10-02T17:39:52.159Z,100764.53
2022-10-02T17:42:43.872Z,100777.34
2022-10-02T17:45:32.470Z,100772.22
2022-10-02T17:48:07.832Z,100768.00
2022-10-02T17:50:50.033Z,100779.81
2022-10-02T17:53:53.760Z,100782.84
2022-10-02T17:56:38.861Z,100793.09
2022-10-02T17:59:34.464Z,100792.91
2022-10-02T18:02:06.971Z,100802.50
2022-10-02T18:04:50.455Z,100810.06
2022-10-02T18:07:35.827Z,100812.59
2022-10-02T18:10:17.615Z,100814.34
2022-10-02T18:13:05.596Z,100819.31
2022-10-02T18:15:40.942Z,100828.50
2022-10-02T18:18:23.087Z,100830.06
2022-10-02T18:20:58.564Z,100841.13
2022-10-02T18:23:55.991Z,100851.25
2022-10-02T18:26:22.424Z,100851.78
2022-10-02T18:29:07.314Z,100850.59
2022-10-02T18:32:02.016Z,100854.25
2022-10-02T18:34:44.292Z,100865.81
2022-10-02T18:37:16.659Z,100875.38
2022-10-02T18:39:52.480Z,100873.72
2022-10-02T18:42:49.364Z,100872.63
2022-10-02T18:45:40.354Z,100867.69
2022-10-02T18:48:45.854Z,100874.72
2022-10-02T18:51:36.998Z,100881.16
2022-10-02T18:54:25.148Z,100883.00
2022-10-02T18:57:15.272Z,100880.28
2022-10-02T18:59:44.876Z,100881.41
2022-10-02T19:02:32.212Z,100886.56
2022-10-02T19:05:17.330Z,100891.25
2022-10-02T19:07:59.216Z,100891.63
2022-10-02T19:10:29.802Z,100898.72
2022-10-02T19:13:17.766Z,100897.06
2022-10-02T19:15:46.539Z,100901.91
2022-10-02T19:18:26.548Z,100897.91
2022-10-02T19:21:02.951Z,100901.69
2022-10-02T19:24:01.398Z,100909.19
2022-10-02T19:26:33.285Z,100905.56
2022-10-02T19:29:19.936Z,100905.56
2022-10-02T19:31:46.764Z,100907.81
2022-10-02T19:34:25.033Z,100920.63
2022-10-02T19:36:57.158Z,100921.56
2022-10-02T19:39:32.109Z,100920.50
2022-10-02T19:42:08.080Z,100928.06
2022-10-02T19:44:40.422Z,100933.94
2022-10-02T19:47:32.406Z,100932.50
2022-10-02T19:50:01.526Z,100939.19
2022-10-02T19:52:44.451Z,100946.16
2022-10-02T19:55:30.290Z,100953.72
2022-10-02T19:58:07.874Z,100951.66
2022-10-02T20:00:38.655Z,100957.44
2022-10-02T20:03:12.536Z,100955.53
2022-10-02T20:05:39.958Z,100969.78
2022-10-02T20:08:14.713Z,100952.81
2022-10-02T20:10:54.553Z,100961.19
2022-10-02T20:13:34.841Z,100973.06
2022-10-02T20:16:31.575Z,100967.31
2022-10-02T20:18:58.186Z,100971.78
2022-10-02T20:21:40.367Z,100983.31
2022-10-02T20:24:27.970Z,100983.19
2022-10-02T20:27:02.291Z,100988.59
2022-10-02T21:42:41.908Z,101063.59
2022-10-02T21:45:23.915Z,101068.69
2022-10-02T21:48:15.437Z,101065.34
2022-10-02T21:51:12.936Z,101067.88
2022-10-02T21:54:19.096Z,101069.91
2022-10-02T21:57:23.191Z,101086.00
2022-10-02T22:00:14.577Z,101084.19
2022-10-02T22:03:04.378Z,101085.59
2022-10-02T22:05:42.368Z,101087.38
2022-10-02T22:08:28.830Z,101087.59
2022-10-02T22:11:12.365Z,101087.16
2022-10-02T22:13:40.932Z,101087.47
2022-10-02T22:16:28.875Z,101093.81
2022-10-02T22:19:09.461Z,101089.69
2022-10-02T22:22:01.901Z,101087.34
2022-10-02T22:25:02.476Z,101091.72
2022-10-02T22:27:49.280Z,101093.91
2022-10-02T22:30:45.843Z,101101.69
2022-10-02T22:33:31.861Z,101106.94
2022-10-02T22:36:24.101Z,101100.13
2022-10-02T22:39:12.324Z,101100.66
2022-10-02T22:41:53.529Z,101097.78
2022-10-02T22:44:34.114Z,101117.13
2022-10-02T22:47:23.686Z,101116.53
2022-10-02T22:49:56.785Z,101117.41
2022-10-02T22:52:42.854Z,101113.19
2022-10-02T22:55:21.582Z,101119.91
2022-10-02T22:58:06.266Z,101117.41
2022-10-02T23:00:56.549Z,101122.97
2022-10-02T23:03:25.924Z,101117.84
2022-10-02T23:06:05.042Z,101115.00
2022-10-02T23:08:48.185Z,101122.22
2022-10-02T23:11:25.417Z,101121.16
2022-10-02T23:13:51.793Z,101127.97
2022-10-02T23:16:42.911Z,101134.78
2022-10-02T23:19:19.946Z,101130.31
2022-10-02T23:21:53.701Z,101128.19
2022-10-02T23:24:30.387Z,101134.66
2022-10-02T23:27:02.759Z,101135.72
2022-10-02T23:30:03.743Z,101133.75
2022-10-02T23:32:40.258Z,101137.38
2022-10-02T23:35:14.787Z,101134.88
2022-10-02T23:38:02.779Z,101140.19
2022-10-02T23:40:51.430Z,101135.53
2022-10-02T23:43:34.795Z,101139.00
2022-10-02T23:46:07.122Z,101137.19
2022-10-02T23:48:34.082Z,101137.63
2022-10-02T23:51:18.647Z,101143.19
2022-10-02T23:54:03.263Z,101142.44
2022-10-02T23:56:48.463Z,101139.00
2022-10-02T23:59:42.253Z,101143.75
